createdAt,value
2023-03-13T00:01:46.797Z,48.71
2023-03-13T00:04:13.567Z,48.88
2023-03-13T00:06:40.641Z,48.72
2023-03-13T00:09:09.581Z,49.05
2023-03-13T00:11:38.958Z,49.00
2023-03-13T00:14:06.691Z,49.16
2023-03-13T00:16:35.638Z,49.20
2023-03-13T00:19:02.385Z,49.16
2023-03-13T00:21:30.701Z,49.43
2023-03-13T00:23:59.309Z,48.89
2023-03-13T00:26:27.397Z,49.18
2023-03-13T00:28:54.256Z,49.66
2023-03-13T00:31:26.769Z,49.63
2023-03-13T00:33:57.178Z,50.24
2023-03-13T00:36:26.341Z,49.90
2023-03-13T00:38:53.912Z,49.97
2023-03-13T00:41:29.311Z,50.54
2023-03-13T00:43:56.648Z,50.23
2023-03-13T00:46:25.742Z,49.79
2023-03-13T00:48:52.828Z,50.52
2023-03-13T00:51:21.146Z,50.90
2023-03-13T00:53:48.314Z,50.79
2023-03-13T00:56:17.455Z,51.04
2023-03-13T00:58:45.865Z,51.08
2023-03-13T01:01:14.392Z,50.78
2023-03-13T01:03:42.990Z,51.57
2023-03-13T01:06:13.709Z,51.96
2023-03-13T01:08:40.874Z,51.31
2023-03-13T01:11:10.980Z,52.11
2023-03-13T01:13:37.951Z,52.05
2023-03-13T01:16:11.718Z,51.46
2023-03-13T01:18:41.223Z,51.92
2023-03-13T01:21:08.011Z,51.74
2023-03-13T01:23:34.863Z,52.40
2023-03-13T01:26:01.899Z,52.66
2023-03-13T01:28:28.484Z,52.72
2023-03-13T01:30:55.207Z,52.54
2023-03-13T01:33:22.170Z,53.24
2023-03-13T01:35:48.814Z,52.69
2023-03-13T01:38:15.429Z,53.44
2023-03-13T01:40:48.250Z,52.80
2023-03-13T01:43:27.930Z,53.73
2023-03-13T01:46:03.982Z,53.68
2023-03-13T01:48:48.790Z,54.18
2023-03-13T01:51:15.284Z,54.63
2023-03-13T01:53:46.053Z,54.61
2023-03-13T01:56:18.992Z,53.93
2023-03-13T01:58:47.853Z,54.06
2023-03-13T02:01:15.475Z,54.09
2023-03-13T02:03:42.860Z,54.57
2023-03-13T02:06:11.156Z,54.44
2023-03-13T02:08:49.516Z,54.39
2023-03-13T02:11:24.847Z,54.11
2023-03-13T02:13:53.619Z,53.94
2023-03-13T02:16:21.974Z,54.16
2023-03-13T02:18:48.938Z,54.12
2023-03-13T02:21:32.515Z,54.53
2023-03-13T02:24:21.252Z,54.00
2023-03-13T02:26:47.807Z,54.61
2023-03-13T02:29:18.424Z,54.57
2023-03-13T02:31:47.352Z,54.63
2023-03-13T02:34:20.746Z,54.25
2023-03-13T02:36:48.170Z,54.80
2023-03-13T02:39:18.557Z,55.25
2023-03-13T02:41:46.917Z,54.68
2023-03-13T02:44:13.488Z,55.26
2023-03-13T02:46:52.513Z,55.38
2023-03-13T02:49:29.115Z,55.54
2023-03-13T02:52:06.024Z,56.33
2023-03-13T02:54:35.919Z,55.55
2023-03-13T02:57:04.756Z,55.98
2023-03-13T02:59:32.151Z,55.97
2023-03-13T03:01:58.798Z,55.90
2023-03-13T03:04:26.726Z,56.28
2023-03-13T03:06:53.784Z,56.38
2023-03-13T03:09:21.052Z,56.80
2023-03-13T03:11:48.072Z,56.76
2023-03-13T03:14:15.242Z,56.92
2023-03-13T03:16:42.130Z,56.15
2023-03-13T03:19:08.839Z,56.62
2023-03-13T03:21:35.770Z,56.74
2023-03-13T03:24:02.740Z,56.68
2023-03-13T03:26:29.576Z,57.21
2023-03-13T03:28:56.520Z,57.81
2023-03-13T03:31:23.115Z,57.47
2023-03-13T03:33:49.700Z,58.15
2023-03-13T03:36:20.082Z,59.24
2023-03-13T03:38:47.520Z,58.54
2023-03-13T03:41:14.383Z,58.85
2023-03-13T03:43:41.612Z,59.67
2023-03-13T03:46:09.011Z,58.79
2023-03-13T03:48:36.583Z,59.16
2023-03-13T03:51:03.720Z,59.27
2023-03-13T03:53:30.798Z,59.56
2023-03-13T03:55:57.328Z,61.16
2023-03-13T03:58:24.399Z,60.49
2023-03-13T04:00:51.013Z,60.84
2023-03-13T04:03:17.776Z,61.99
2023-03-13T04:05:44.484Z,61.97
2023-03-13T04:08:11.091Z,62.45
2023-03-13T04:10:37.659Z,62.90
2023-03-13T04:13:04.310Z,62.87
2023-03-13T04:15:30.880Z,62.87
2023-03-13T04:17:57.650Z,62.60
2023-03-13T04:20:24.253Z,62.17
2023-03-13T04:22:50.815Z,62.35
2023-03-13T04:25:17.618Z,62.16
2023-03-13T04:27:44.333Z,62.48
2023-03-13T04:30:11.375Z,62.52
2023-03-13T04:32:37.916Z,63.01
2023-03-13T04:35:05.194Z,62.70
2023-03-13T04:37:31.833Z,62.54
2023-03-13T04:39:58.464Z,62.63
2023-03-13T04:42:25.139Z,63.14
2023-03-13T04:44:51.673Z,62.92
2023-03-13T04:47:18.793Z,63.14
2023-03-13T04:49:45.401Z,63.82
2023-03-13T04:52:12.868Z,62.55
2023-03-13T04:54:39.398Z,62.93
2023-03-13T04:57:06.102Z,63.21
2023-03-13T04:59:32.664Z,62.45
2023-03-13T05:01:59.220Z,62.38
2023-03-13T05:04:25.751Z,61.89
2023-03-13T05:06:52.291Z,62.10
2023-03-13T05:09:18.834Z,62.25
2023-03-13T05:11:45.385Z,62.23
2023-03-13T05:14:11.896Z,62.01
2023-03-13T05:16:39.166Z,61.85
2023-03-13T05:19:05.779Z,62.34
2023-03-13T05:21:32.517Z,61.36
2023-03-13T05:23:59.145Z,62.01
2023-03-13T05:26:25.748Z,61.51
2023-03-13T05:28:52.370Z,61.76
2023-03-13T05:31:19.090Z,62.14
2023-03-13T05:33:45.859Z,62.00
2023-03-13T05:36:12.437Z,62.21
2023-03-13T05:38:39.139Z,61.72
2023-03-13T05:41:05.685Z,61.74
2023-03-13T05:43:32.324Z,62.00
2023-03-13T05:45:58.944Z,61.85
2023-03-13T05:48:26.830Z,62.02
2023-03-13T05:50:53.386Z,61.35
2023-03-13T05:53:20.021Z,61.41
2023-03-13T05:55:46.555Z,61.10
2023-03-13T05:58:13.166Z,60.56
2023-03-13T06:00:39.756Z,60.30
2023-03-13T06:03:06.328Z,60.16
2023-03-13T06:05:32.885Z,61.25
2023-03-13T06:07:59.435Z,60.99
2023-03-13T06:10:26.016Z,61.27
2023-03-13T06:12:54.390Z,60.77
2023-03-13T06:15:21.057Z,60.29
2023-03-13T06:17:47.843Z,59.93
2023-03-13T06:20:14.452Z,60.11
2023-03-13T06:22:42.073Z,60.09
2023-03-13T06:25:09.122Z,59.33
2023-03-13T06:27:35.854Z,58.85
2023-03-13T06:30:03.428Z,58.10
2023-03-13T06:32:30.180Z,58.20
2023-03-13T06:34:56.926Z,58.04
2023-03-13T06:37:23.533Z,57.97
2023-03-13T06:39:50.101Z,57.31
2023-03-13T06:42:16.616Z,57.02
2023-03-13T06:44:43.245Z,56.32
2023-03-13T06:47:09.860Z,56.49
2023-03-13T06:49:36.553Z,56.02
2023-03-13T06:52:03.227Z,56.01
2023-03-13T06:54:30.228Z,54.83
2023-03-13T06:56:56.843Z,55.21
2023-03-13T06:59:23.406Z,55.35
2023-03-13T07:01:50.140Z,54.92
2023-03-13T07:04:16.910Z,54.98
2023-03-13T07:06:43.601Z,54.94
2023-03-13T07:09:10.949Z,55.18
2023-03-13T07:11:37.749Z,54.36
2023-03-13T07:14:15.792Z,54.24
2023-03-13T07:16:43.881Z,53.90
2023-03-13T07:19:10.673Z,52.84
2023-03-13T07:21:37.401Z,52.14
2023-03-13T07:24:04.394Z,51.96
2023-03-13T07:26:32.602Z,52.11
2023-03-13T07:28:59.348Z,52.23
2023-03-13T07:31:26.298Z,51.96
2023-03-13T07:33:56.554Z,52.00
2023-03-13T07:36:23.830Z,51.88
2023-03-13T07:38:51.611Z,51.92
2023-03-13T07:41:18.921Z,51.46
2023-03-13T07:43:46.226Z,51.40
2023-03-13T07:46:15.787Z,50.98
2023-03-13T07:48:43.394Z,51.46
2023-03-13T07:51:20.555Z,51.50
2023-03-13T07:53:51.216Z,50.76
2023-03-13T07:56:20.387Z,50.35
2023-03-13T07:58:47.038Z,50.84
2023-03-13T08:01:16.500Z,50.31
2023-03-13T08:03:44.195Z,49.34
2023-03-13T08:06:13.395Z,49.50
2023-03-13T08:08:40.995Z,49.35
2023-03-13T08:11:11.175Z,48.61
2023-03-13T08:13:38.362Z,49.85
2023-03-13T08:16:08.045Z,48.42
2023-03-13T08:18:36.514Z,48.03
2023-03-13T08:21:14.747Z,47.93
2023-03-13T08:23:41.966Z,48.54
2023-03-13T08:26:14.885Z,48.10
2023-03-13T08:28:42.503Z,47.73
2023-03-13T08:31:10.342Z,46.97
2023-03-13T08:33:37.273Z,46.42
2023-03-13T08:36:33.999Z,47.41
2023-03-13T08:39:03.568Z,47.98
2023-03-13T08:41:34.868Z,46.56
2023-03-13T08:44:02.211Z,47.29
2023-03-13T08:46:34.778Z,46.21
2023-03-13T08:49:02.600Z,45.77
2023-03-13T08:51:29.699Z,44.92
2023-03-13T08:53:56.798Z,45.80
2023-03-13T08:56:28.723Z,43.96
2023-03-13T08:58:58.233Z,44.44
2023-03-13T09:01:27.549Z,44.16
2023-03-13T09:03:54.389Z,45.03
2023-03-13T09:06:21.418Z,43.73
2023-03-13T09:08:48.345Z,44.27
2023-03-13T09:11:17.387Z,44.54
2023-03-13T09:13:46.794Z,42.56
2023-03-13T09:16:16.528Z,40.91
2023-03-13T09:18:44.304Z,41.64
2023-03-13T09:21:14.100Z,41.18
2023-03-13T09:23:40.827Z,40.11
2023-03-13T09:26:07.509Z,40.09
2023-03-13T09:28:34.615Z,38.57
2023-03-13T09:31:08.942Z,39.75
2023-03-13T09:33:36.058Z,39.78
2023-03-13T09:36:02.821Z,40.12
2023-03-13T09:38:29.930Z,39.09
2023-03-13T09:41:06.442Z,38.08
2023-03-13T09:43:58.371Z,37.88
2023-03-13T09:46:46.153Z,36.87
2023-03-13T09:49:27.547Z,37.11
2023-03-13T09:52:01.505Z,36.58
2023-03-13T09:54:46.275Z,36.83
2023-03-13T09:57:15.612Z,38.39
2023-03-13T09:59:48.385Z,36.26
2023-03-13T10:02:25.607Z,37.23
2023-03-13T10:04:58.238Z,35.91
2023-03-13T10:07:24.828Z,37.05
2023-03-13T10:09:53.660Z,35.99
2023-03-13T10:12:24.902Z,35.76
2023-03-13T10:15:16.104Z,36.27
2023-03-13T10:17:42.682Z,34.09
2023-03-13T10:20:23.644Z,35.32
2023-03-13T10:23:03.334Z,35.64
2023-03-13T10:25:38.761Z,35.15
2023-03-13T10:28:12.879Z,35.04
2023-03-13T10:30:49.440Z,35.57
2023-03-13T10:33:28.143Z,35.00
2023-03-13T10:36:20.883Z,34.36
2023-03-13T10:38:47.525Z,34.77
2023-03-13T10:41:33.762Z,34.49
2023-03-13T10:44:06.236Z,33.47
2023-03-13T10:46:35.999Z,34.69
2023-03-13T10:49:04.868Z,32.30
2023-03-13T10:51:48.632Z,33.38
2023-03-13T10:54:25.799Z,33.09
2023-03-13T10:57:07.307Z,34.74
2023-03-13T10:59:40.757Z,33.95
2023-03-13T11:02:34.035Z,31.47
2023-03-13T11:05:01.984Z,32.57
2023-03-13T11:07:38.550Z,33.11
2023-03-13T11:10:13.843Z,30.13
2023-03-13T11:12:45.573Z,29.52
2023-03-13T11:15:18.946Z,28.87
2023-03-13T11:17:51.368Z,29.85
2023-03-13T11:20:25.921Z,27.88
2023-03-13T11:23:16.778Z,29.03
2023-03-13T11:25:58.006Z,28.73
2023-03-13T11:29:09.259Z,28.81
2023-03-13T11:31:46.232Z,26.09
2023-03-13T11:34:25.873Z,26.96
2023-03-13T11:37:03.518Z,27.53
2023-03-13T11:40:07.934Z,26.08
2023-03-13T11:42:42.507Z,25.47
2023-03-13T11:45:12.028Z,25.64
2023-03-13T11:48:07.409Z,25.52
2023-03-13T11:50:42.376Z,24.66
2023-03-13T11:53:10.770Z,24.37
2023-03-13T11:55:43.364Z,24.32
2023-03-13T11:58:19.061Z,22.74
2023-03-13T12:00:57.864Z,23.98
2023-03-13T12:03:48.876Z,22.82
2023-03-13T12:06:27.945Z,22.71
2023-03-13T12:09:02.314Z,22.43
2023-03-13T12:11:38.669Z,21.98
2023-03-13T12:14:25.290Z,22.19
2023-03-13T12:16:59.197Z,20.83
2023-03-13T12:19:45.801Z,21.33
2023-03-13T12:22:20.277Z,22.64
2023-03-13T12:25:10.720Z,23.36
2023-03-13T12:27:43.072Z,23.49
2023-03-13T12:30:41.083Z,23.86
2023-03-13T12:33:15.804Z,22.82
2023-03-13T12:35:47.414Z,22.67
2023-03-13T12:38:19.744Z,22.39
2023-03-13T12:41:17.837Z,21.32
2023-03-13T12:44:00.581Z,20.65
2023-03-13T12:46:43.227Z,20.89
2023-03-13T12:49:18.859Z,20.63
2023-03-13T12:52:10.389Z,20.63
2023-03-13T12:54:55.683Z,19.30
2023-03-13T12:58:00.925Z,19.39
2023-03-13T13:00:30.898Z,18.91
2023-03-13T13:03:18.239Z,19.88
2023-03-13T13:06:00.101Z,19.89
2023-03-13T13:08:27.187Z,20.25
2023-03-13T13:10:53.807Z,20.54
2023-03-13T13:13:32.780Z,20.60
2023-03-13T13:16:18.546Z,20.54
2023-03-13T13:18:45.159Z,20.23
2023-03-13T13:21:26.596Z,20.44
2023-03-13T13:23:56.454Z,21.20
2023-03-13T13:26:36.808Z,21.56
2023-03-13T13:29:12.356Z,21.28
2023-03-13T13:31:51.975Z,21.05
2023-03-13T13:34:31.103Z,20.73
2023-03-13T13:36:59.458Z,20.08
2023-03-13T13:39:50.440Z,20.33
2023-03-13T13:42:45.563Z,20.41
2023-03-13T13:45:14.920Z,21.12
2023-03-13T13:47:44.639Z,20.17
2023-03-13T13:50:19.472Z,19.55
2023-03-13T13:52:47.664Z,21.47
2023-03-13T13:55:26.452Z,22.53
2023-03-13T13:58:04.324Z,21.56
2023-03-13T14:01:00.773Z,21.52
2023-03-13T14:03:30.708Z,22.40
2023-03-13T14:06:17.809Z,22.09
2023-03-13T14:08:47.066Z,22.84
2023-03-13T14:11:36.764Z,23.42
2023-03-13T14:14:19.700Z,24.87
2023-03-13T14:16:51.637Z,25.67
2023-03-13T14:19:42.944Z,25.35
2023-03-13T14:22:11.330Z,24.30
2023-03-13T14:24:38.362Z,23.97
2023-03-13T14:27:16.429Z,24.65
2023-03-13T14:30:00.015Z,24.75
2023-03-13T14:32:26.764Z,24.83
2023-03-13T14:34:53.420Z,25.47
2023-03-13T14:37:37.809Z,26.26
2023-03-13T14:40:24.633Z,24.67
2023-03-13T14:42:57.706Z,24.31
2023-03-13T14:45:33.454Z,24.14
2023-03-13T14:48:18.957Z,24.88
2023-03-13T14:50:45.840Z,25.16
2023-03-13T14:53:17.325Z,25.83
2023-03-13T14:55:44.446Z,26.06
2023-03-13T14:58:19.978Z,25.82
2023-03-13T15:00:48.694Z,25.97
2023-03-13T15:03:18.971Z,26.13
2023-03-13T15:05:48.839Z,26.22
2023-03-13T15:08:21.686Z,26.57
2023-03-13T15:10:49.500Z,27.05
2023-03-13T15:13:34.085Z,27.52
2023-03-13T15:16:01.893Z,28.12
2023-03-13T15:18:31.716Z,28.06
2023-03-13T15:21:17.434Z,28.45
2023-03-13T15:24:11.192Z,29.46
2023-03-13T15:26:37.765Z,30.42
2023-03-13T15:29:04.524Z,30.64
2023-03-13T15:31:31.275Z,31.50
2023-03-13T15:34:00.165Z,31.54
2023-03-13T15:36:28.721Z,31.53
2023-03-13T15:38:55.788Z,32.54
2023-03-13T15:41:22.778Z,32.58
2023-03-13T15:43:52.744Z,33.08
2023-03-13T15:46:20.592Z,33.15
2023-03-13T15:48:48.014Z,33.35
2023-03-13T15:51:16.698Z,33.56
2023-03-13T15:53:44.324Z,34.00
2023-03-13T15:56:20.157Z,34.38
2023-03-13T15:58:48.404Z,34.79
2023-03-13T16:01:16.872Z,35.19
2023-03-13T16:03:43.770Z,35.56
2023-03-13T16:06:28.084Z,35.55
2023-03-13T16:08:54.625Z,35.82
2023-03-13T16:11:21.247Z,36.12
2023-03-13T16:13:47.812Z,36.41
2023-03-13T16:16:20.985Z,36.47
2023-03-13T16:18:49.638Z,36.63
2023-03-13T16:21:21.012Z,37.36
2023-03-13T16:23:48.215Z,37.58
2023-03-13T16:26:20.638Z,37.47
2023-03-13T16:28:48.126Z,37.88
2023-03-13T16:31:33.569Z,37.84
2023-03-13T16:34:00.751Z,38.30
2023-03-13T16:36:31.123Z,39.07
2023-03-13T16:38:59.403Z,39.29
2023-03-13T16:41:27.783Z,39.94
2023-03-13T16:43:55.716Z,40.17
2023-03-13T16:46:30.381Z,40.60
2023-03-13T16:48:58.455Z,40.62
2023-03-13T16:51:27.436Z,40.96
2023-03-13T16:53:56.216Z,41.26
2023-03-13T16:56:33.979Z,41.33
2023-03-13T16:59:02.279Z,41.62
2023-03-13T17:01:29.220Z,41.80
2023-03-13T17:03:57.766Z,42.16
2023-03-13T17:06:27.181Z,42.12
2023-03-13T17:08:54.324Z,42.20
2023-03-13T17:11:22.410Z,42.50
2023-03-13T17:13:51.711Z,42.38
2023-03-13T17:16:19.979Z,42.64
2023-03-13T17:18:49.036Z,42.73
2023-03-13T17:21:22.064Z,42.96
2023-03-13T17:23:48.631Z,42.84
2023-03-13T17:26:23.070Z,42.85
2023-03-13T17:28:52.263Z,43.26
2023-03-13T17:31:20.226Z,43.31
2023-03-13T17:33:47.713Z,43.74
2023-03-13T17:36:15.448Z,43.85
2023-03-13T17:38:42.136Z,44.01
2023-03-13T17:41:14.099Z,44.41
2023-03-13T17:43:41.793Z,44.44
2023-03-13T17:46:15.726Z,44.53
2023-03-13T17:48:42.552Z,44.46
2023-03-13T17:51:17.958Z,44.42
2023-03-13T17:53:44.966Z,44.59
2023-03-13T17:56:20.232Z,44.53
2023-03-13T17:58:54.232Z,44.81
2023-03-13T18:01:22.427Z,44.79
2023-03-13T18:03:49.566Z,45.04
2023-03-13T18:06:25.807Z,45.29
2023-03-13T18:08:55.116Z,44.91
2023-03-13T18:11:23.149Z,45.34
2023-03-13T18:13:49.866Z,45.57
2023-03-13T18:16:25.472Z,45.63
2023-03-13T18:18:53.397Z,45.67
2023-03-13T18:21:21.856Z,45.59
2023-03-13T18:23:48.483Z,45.60
2023-03-13T18:26:32.900Z,45.79
2023-03-13T18:29:01.190Z,45.79
2023-03-13T18:31:30.355Z,46.16
2023-03-13T18:34:00.161Z,46.13
2023-03-13T18:36:27.731Z,45.94
2023-03-13T18:38:54.399Z,46.31
2023-03-13T18:41:21.331Z,46.33
2023-03-13T18:43:48.331Z,46.52
2023-03-13T18:46:20.299Z,47.03
2023-03-13T18:48:47.202Z,46.96
2023-03-13T18:51:15.377Z,47.19
2023-03-13T18:53:42.205Z,47.26
2023-03-13T18:56:25.378Z,47.60
2023-03-13T18:58:53.594Z,47.95
2023-03-13T19:01:23.158Z,47.90
2023-03-13T19:03:50.168Z,48.29
2023-03-13T19:06:26.344Z,48.34
2023-03-13T19:08:55.720Z,48.33
2023-03-13T19:11:25.777Z,48.60
2023-03-13T19:13:52.740Z,49.25
2023-03-13T19:16:27.468Z,48.88
2023-03-13T19:18:54.182Z,48.60
2023-03-13T19:21:29.604Z,48.75
2023-03-13T19:23:57.351Z,48.15
2023-03-13T19:26:31.316Z,48.40
2023-03-13T19:28:59.515Z,48.38
2023-03-13T19:31:26.191Z,48.01
2023-03-13T19:33:55.660Z,48.00
2023-03-13T19:36:24.342Z,47.76
2023-03-13T19:38:51.238Z,48.05
2023-03-13T19:41:17.865Z,47.94
2023-03-13T19:43:45.506Z,47.78
2023-03-13T19:46:22.872Z,47.81
2023-03-13T19:48:52.629Z,47.81
2023-03-13T19:51:19.438Z,47.84
2023-03-13T19:53:46.493Z,48.02
2023-03-13T19:56:17.434Z,47.85
2023-03-13T19:58:46.227Z,48.24
2023-03-13T20:01:17.618Z,48.15
2023-03-13T20:03:45.815Z,48.25
2023-03-13T20:06:40.059Z,48.00
2023-03-13T20:09:09.196Z,48.13
2023-03-13T20:11:36.416Z,48.30
2023-03-13T20:14:03.589Z,48.05
2023-03-13T20:16:33.644Z,47.91
2023-03-13T20:19:01.873Z,48.11
2023-03-13T20:21:30.913Z,47.87
2023-03-13T20:23:58.446Z,47.54
2023-03-13T20:26:26.395Z,47.43
2023-03-13T20:28:54.258Z,47.38
2023-03-13T20:31:26.492Z,47.19
2023-03-13T20:33:54.505Z,47.56
2023-03-13T20:36:21.556Z,47.28
2023-03-13T20:38:48.668Z,47.14
2023-03-13T20:41:24.475Z,46.75
2023-03-13T20:43:52.298Z,46.98
2023-03-13T20:46:18.987Z,46.89
2023-03-13T20:48:45.580Z,46.55
2023-03-13T20:51:12.883Z,46.36
2023-03-13T20:53:41.523Z,45.85
2023-03-13T20:56:09.356Z,45.69
2023-03-13T20:58:36.521Z,45.94
2023-03-13T21:01:05.131Z,46.25
2023-03-13T21:03:35.419Z,46.00
2023-03-13T21:06:09.688Z,45.83
2023-03-13T21:08:38.574Z,46.63
2023-03-13T21:11:15.726Z,46.53
2023-03-13T21:13:42.476Z,46.24
2023-03-13T21:16:09.711Z,46.45
2023-03-13T21:18:37.307Z,46.07
2023-03-13T21:21:05.884Z,46.30
2023-03-13T21:23:32.878Z,45.98
2023-03-13T21:26:00.626Z,46.00
2023-03-13T21:28:28.191Z,45.46
2023-03-13T21:30:55.360Z,46.00
2023-03-13T21:33:22.342Z,46.12
2023-03-13T21:35:50.677Z,46.17
2023-03-13T21:38:17.606Z,46.00
2023-03-13T21:40:44.210Z,46.26
2023-03-13T21:43:10.774Z,46.36
2023-03-13T21:45:37.404Z,45.76
2023-03-13T21:48:04.214Z,45.44
2023-03-13T21:50:30.960Z,45.84
2023-03-13T21:52:57.681Z,45.80
2023-03-13T21:55:24.260Z,45.44
2023-03-13T21:57:51.042Z,45.19
2023-03-13T22:00:17.879Z,45.22
2023-03-13T22:02:44.546Z,45.38
2023-03-13T22:05:11.582Z,44.92
2023-03-13T22:07:38.228Z,45.28
2023-03-13T22:10:05.307Z,45.50
2023-03-13T22:12:31.875Z,45.40
2023-03-13T22:14:58.510Z,45.54
2023-03-13T22:17:25.204Z,45.38
2023-03-13T22:19:51.874Z,45.44
2023-03-13T22:22:20.021Z,45.60
2023-03-13T22:24:46.764Z,45.36
2023-03-13T22:27:13.958Z,45.28
2023-03-13T22:29:41.131Z,45.66
2023-03-13T22:32:07.762Z,45.61
2023-03-13T22:34:34.361Z,46.01
2023-03-13T22:37:01.101Z,45.65
2023-03-13T22:39:27.685Z,45.67
2023-03-13T22:41:54.306Z,46.26
2023-03-13T22:44:21.700Z,46.22
2023-03-13T22:46:48.480Z,46.56
2023-03-13T22:49:15.151Z,47.25
2023-03-13T22:51:41.722Z,47.49
2023-03-13T22:54:08.524Z,47.09
2023-03-13T22:56:35.084Z,47.58
2023-03-13T22:59:03.085Z,47.56
2023-03-13T23:01:29.928Z,47.93
2023-03-13T23:03:56.636Z,47.96
2023-03-13T23:06:25.546Z,48.51
2023-03-13T23:08:52.470Z,49.04
2023-03-13T23:11:19.960Z,48.73
2023-03-13T23:13:47.052Z,49.88
2023-03-13T23:16:14.737Z,49.23
2023-03-13T23:18:42.269Z,50.29
2023-03-13T23:21:14.321Z,49.57
2023-03-13T23:23:41.772Z,50.58
2023-03-13T23:26:15.454Z,50.94
2023-03-13T23:28:42.389Z,51.27
2023-03-13T23:31:17.612Z,51.77
2023-03-13T23:33:45.170Z,51.20
2023-03-13T23:36:14.868Z,51.89
2023-03-13T23:38:41.935Z,53.20
2023-03-13T23:41:10.971Z,53.19
2023-03-13T23:43:38.000Z,52.80
2023-03-13T23:46:05.596Z,52.86
2023-03-13T23:48:32.237Z,53.51
2023-03-13T23:50:59.014Z,54.28
2023-03-13T23:53:25.632Z,54.30
2023-03-13T23:55:58.556Z,54.33
2023-03-13T23:58:25.382Z,55.51
